Time;durP1;ratioP1;P1;durP2;ratioP2;P2;SDS_P1;SDS_P2;PMS_P1;PMS_P2;Temp;Humidity;BMP_temperature;BMP_pressure;BME280_temperature;BME280_humidity;BME280_pressure;Samples;Min_cycle;Max_cycle;Signal;HPM_P1;HPM_P2
2023/04/07 00:00:23;;;;;;;20.24;13.88;;;;;;;;;;5282949;28;20020;-70
2023/04/07 00:02:55;;;;;;;19.85;14.18;;;;;;;;;;5281637;28;20013;-70
2023/04/07 00:05:26;;;;;;;16.20;12.77;;;;;;;;;;5283005;28;20016;-70
2023/04/07 00:07:58;;;;;;;15.18;12.15;;;;;;;;;;5282013;28;20033;-70
2023/04/07 00:10:29;;;;;;;15.15;12.07;;;;;;;;;;5281580;28;20478;-70
2023/04/07 00:13:01;;;;;;;18.27;13.18;;;;;;;;;;5282257;28;20028;-70
2023/04/07 00:15:32;;;;;;;18.33;12.20;;;;;;;;;;5281771;28;20364;-70
2023/04/07 00:18:03;;;;;;;16.60;11.60;;;;;;;;;;5282194;28;20040;-70
2023/04/07 00:20:34;;;;;;;18.45;13.30;;;;;;;;;;5282237;28;20544;-70
2023/04/07 00:23:05;;;;;;;19.10;14.48;;;;;;;;;;5281361;28;20067;-70
2023/04/07 00:25:36;;;;;;;14.68;13.02;;;;;;;;;;5282114;28;20285;-71
2023/04/07 00:28:08;;;;;;;16.30;12.52;;;;;;;;;;5282137;28;20078;-70
2023/04/07 00:30:39;;;;;;;18.55;13.35;;;;;;;;;;5281028;28;20021;-69
2023/04/07 00:33:10;;;;;;;15.20;12.95;;;;;;;;;;5282302;28;20070;-71
2023/04/07 00:35:41;;;;;;;16.75;12.70;;;;;;;;;;5281836;28;20474;-70
2023/04/07 00:38:12;;;;;;;17.60;12.88;;;;;;;;;;5281460;28;20037;-70
2023/04/07 00:40:44;;;;;;;17.73;12.77;;;;;;;;;;5282085;28;20024;-70
2023/04/07 00:43:15;;;;;;;17.13;12.52;;;;;;;;;;5282205;28;20023;-69
2023/04/07 00:45:46;;;;;;;18.75;13.82;;;;;;;;;;5280686;28;20477;-70
2023/04/07 00:48:17;;;;;;;14.73;12.68;;;;;;;;;;5282138;28;20441;-69
2023/04/07 00:50:48;;;;;;;16.95;12.90;;;;;;;;;;5280971;28;20044;-70
2023/04/07 00:53:20;;;;;;;18.52;13.25;;;;;;;;;;5282289;28;20024;-70
2023/04/07 00:55:51;;;;;;;17.75;13.02;;;;;;;;;;5281556;28;20028;-70
2023/04/07 00:58:22;;;;;;;17.98;13.80;;;;;;;;;;5281234;28;20165;-70
2023/04/07 01:01:06;;;;;;;16.98;12.45;;;;;;;;;;5284972;28;20024;-70
2023/04/07 01:04:06;;;;;;;13.98;12.35;;;;;;;;;;5288505;28;20028;-70
2023/04/07 01:06:42;;;;;;;14.57;12.13;;;;;;;;;;5265859;28;20064;-71
2023/04/07 01:09:17;;;;;;;14.63;12.25;;;;;;;;;;5288874;28;20024;-70
2023/04/07 01:11:51;;;;;;;16.58;12.70;;;;;;;;;;5287934;28;20608;-70
2023/04/07 01:14:23;;;;;;;17.55;13.88;;;;;;;;;;5288833;28;20054;-70
2023/04/07 01:16:56;;;;;;;16.95;12.63;;;;;;;;;;5288282;28;20522;-70
2023/04/07 01:19:39;;;;;;;16.63;13.38;;;;;;;;;;5288065;28;20116;-70
2023/04/07 01:22:21;;;;;;;16.08;13.43;;;;;;;;;;5288858;28;20036;-70
2023/04/07 01:24:55;;;;;;;18.52;15.25;;;;;;;;;;5288243;28;20016;-70
2023/04/07 01:27:39;;;;;;;17.77;13.38;;;;;;;;;;5287955;28;20033;-70
2023/04/07 01:30:11;;;;;;;18.15;14.48;;;;;;;;;;5288556;28;20023;-70
2023/04/07 01:32:45;;;;;;;19.58;14.70;;;;;;;;;;5287656;28;20027;-70
2023/04/07 01:35:17;;;;;;;16.38;13.30;;;;;;;;;;5288717;28;20028;-70
2023/04/07 01:37:49;;;;;;;16.23;13.70;;;;;;;;;;5288161;28;20017;-70
2023/04/07 01:40:20;;;;;;;14.93;13.30;;;;;;;;;;5287961;28;20020;-68
2023/04/07 01:42:52;;;;;;;14.45;11.90;;;;;;;;;;5288334;28;20027;-69
2023/04/07 01:45:25;;;;;;;14.65;10.85;;;;;;;;;;5288484;28;20031;-69
2023/04/07 01:47:56;;;;;;;14.25;10.38;;;;;;;;;;5287224;28;20020;-69
2023/04/07 01:50:28;;;;;;;13.68;9.80;;;;;;;;;;5288588;28;20032;-70
2023/04/07 01:53:00;;;;;;;10.40;8.68;;;;;;;;;;5287972;28;20051;-70
2023/04/07 01:55:31;;;;;;;9.20;8.25;;;;;;;;;;5287888;28;20058;-70
2023/04/07 01:58:04;;;;;;;10.18;7.72;;;;;;;;;;5288159;28;20105;-69
2023/04/07 02:00:35;;;;;;;7.47;6.65;;;;;;;;;;5288363;28;20394;-69
2023/04/07 02:03:22;;;;;;;8.68;6.13;;;;;;;;;;5287298;28;20024;-69
2023/04/07 02:05:55;;;;;;;7.68;5.53;;;;;;;;;;5287882;28;20038;-70
2023/04/07 02:08:27;;;;;;;7.65;5.90;;;;;;;;;;5287804;28;20017;-69
2023/04/07 02:10:59;;;;;;;6.72;4.93;;;;;;;;;;5287817;28;20135;-70
2023/04/07 02:13:31;;;;;;;8.35;5.35;;;;;;;;;;5284128;28;20088;-70
2023/04/07 02:16:03;;;;;;;6.15;4.75;;;;;;;;;;5284145;28;20155;-69
2023/04/07 02:18:34;;;;;;;6.07;4.78;;;;;;;;;;5284795;28;20352;-70
2023/04/07 02:21:07;;;;;;;9.27;5.28;;;;;;;;;;5284669;28;20117;-69
2023/04/07 02:23:38;;;;;;;8.35;5.22;;;;;;;;;;5283230;28;20162;-69
2023/04/07 02:26:10;;;;;;;5.93;5.30;;;;;;;;;;5284962;28;20103;-69
2023/04/07 02:28:41;;;;;;;7.32;4.90;;;;;;;;;;5284656;28;20398;-70
2023/04/07 02:31:12;;;;;;;6.03;5.03;;;;;;;;;;5283971;28;20048;-70
2023/04/07 02:33:44;;;;;;;7.50;5.45;;;;;;;;;;5284083;28;20509;-70
2023/04/07 02:36:15;;;;;;;7.82;5.35;;;;;;;;;;5283938;28;20062;-70
2023/04/07 02:38:46;;;;;;;10.25;6.40;;;;;;;;;;5283848;28;20094;-70
2023/04/07 02:41:17;;;;;;;13.68;7.80;;;;;;;;;;5284849;28;20012;-70
2023/04/07 02:43:49;;;;;;;10.65;7.22;;;;;;;;;;5283184;28;20040;-70
2023/04/07 02:46:20;;;;;;;11.00;8.70;;;;;;;;;;5284490;28;20021;-69
2023/04/07 02:48:51;;;;;;;12.55;8.82;;;;;;;;;;5283712;28;20017;-69
2023/04/07 02:51:22;;;;;;;10.56;8.32;;;;;;;;;;5283354;28;20027;-69
2023/04/07 02:53:53;;;;;;;10.07;8.02;;;;;;;;;;5283517;28;20020;-69
2023/04/07 02:56:24;;;;;;;9.13;8.18;;;;;;;;;;5284409;28;20485;-70
2023/04/07 02:58:56;;;;;;;13.68;8.63;;;;;;;;;;5282860;28;20110;-70
2023/04/07 03:01:27;;;;;;;13.76;9.04;;;;;;;;;;5284040;28;20386;-70
2023/04/07 03:03:58;;;;;;;10.52;8.82;;;;;;;;;;5283139;28;20378;-70
2023/04/07 03:06:30;;;;;;;10.45;8.57;;;;;;;;;;5283385;28;20388;-70
2023/04/07 03:09:01;;;;;;;10.05;8.15;;;;;;;;;;5283761;28;20017;-70
2023/04/07 03:11:32;;;;;;;9.13;8.02;;;;;;;;;;5282935;28;20104;-70
2023/04/07 03:14:03;;;;;;;9.10;7.13;;;;;;;;;;5283543;28;20024;-72
2023/04/07 03:16:35;;;;;;;10.10;7.65;;;;;;;;;;5283439;28;20055;-70
2023/04/07 03:19:06;;;;;;;9.43;7.53;;;;;;;;;;5282722;28;20487;-71
2023/04/07 03:21:37;;;;;;;10.40;8.25;;;;;;;;;;5282845;28;20067;-71
2023/04/07 03:24:08;;;;;;;9.95;7.53;;;;;;;;;;5282440;28;20379;-71
2023/04/07 03:26:39;;;;;;;9.20;7.63;;;;;;;;;;5282240;28;20020;-71
2023/04/07 03:29:11;;;;;;;8.25;6.90;;;;;;;;;;5283808;28;20044;-71
2023/04/07 03:31:42;;;;;;;8.48;7.07;;;;;;;;;;5282873;28;20024;-71
2023/04/07 03:34:14;;;;;;;7.80;6.97;;;;;;;;;;5282872;28;20583;-70
2023/04/07 03:36:45;;;;;;;10.43;7.80;;;;;;;;;;5282888;28;20021;-69
2023/04/07 03:39:16;;;;;;;8.40;7.55;;;;;;;;;;5282310;28;20040;-70
2023/04/07 03:41:48;;;;;;;8.20;7.02;;;;;;;;;;5282868;28;20017;-70
2023/04/07 03:44:19;;;;;;;12.04;7.34;;;;;;;;;;5283377;28;20030;-69
2023/04/07 03:46:50;;;;;;;10.60;6.72;;;;;;;;;;5281871;28;20075;-70
2023/04/07 03:49:21;;;;;;;9.80;7.47;;;;;;;;;;5283116;28;20095;-69
2023/04/07 03:51:52;;;;;;;10.10;7.35;;;;;;;;;;5282366;28;20100;-69
2023/04/07 03:54:24;;;;;;;11.77;8.25;;;;;;;;;;5282289;28;20078;-69
2023/04/07 03:56:56;;;;;;;10.27;8.05;;;;;;;;;;5282489;28;20016;-69
2023/04/07 03:59:27;;;;;;;12.07;8.32;;;;;;;;;;5283086;28;20132;-70
2023/04/07 04:01:58;;;;;;;10.98;8.38;;;;;;;;;;5281415;28;20009;-70
2023/04/07 04:04:29;;;;;;;12.90;9.57;;;;;;;;;;5282785;28;20459;-69
2023/04/07 04:07:00;;;;;;;14.73;9.50;;;;;;;;;;5282532;28;20096;-69
2023/04/07 04:09:32;;;;;;;13.15;9.25;;;;;;;;;;5281769;28;20027;-69
2023/04/07 04:12:03;;;;;;;12.18;8.98;;;;;;;;;;5282310;28;20099;-69
2023/04/07 04:14:34;;;;;;;12.35;9.70;;;;;;;;;;5281504;28;20521;-70
2023/04/07 04:17:06;;;;;;;12.90;9.02;;;;;;;;;;5282212;28;20013;-69
2023/04/07 04:19:37;;;;;;;13.35;9.38;;;;;;;;;;5282369;28;20042;-69
2023/04/07 04:22:08;;;;;;;11.10;8.65;;;;;;;;;;5281657;28;20052;-71
2023/04/07 04:24:40;;;;;;;10.48;8.23;;;;;;;;;;5281874;28;20028;-70
2023/04/07 04:27:11;;;;;;;11.02;8.55;;;;;;;;;;5282512;28;20021;-70
2023/04/07 04:29:43;;;;;;;11.40;9.15;;;;;;;;;;5281479;28;20082;-69
2023/04/07 04:32:14;;;;;;;14.80;9.72;;;;;;;;;;5282594;28;20096;-70
2023/04/07 04:34:45;;;;;;;13.75;9.13;;;;;;;;;;5281471;28;20017;-69
2023/04/07 04:37:16;;;;;;;14.77;9.07;;;;;;;;;;5281519;28;20013;-70
2023/04/07 04:39:47;;;;;;;12.02;9.02;;;;;;;;;;5281414;28;20058;-70
2023/04/07 04:42:19;;;;;;;14.28;8.70;;;;;;;;;;5282203;28;20013;-70
2023/04/07 04:44:50;;;;;;;14.23;9.60;;;;;;;;;;5281089;28;20020;-70
2023/04/07 04:47:21;;;;;;;13.00;8.68;;;;;;;;;;5282444;28;20374;-70
2023/04/07 04:49:52;;;;;;;12.48;8.75;;;;;;;;;;5280851;28;20133;-70
2023/04/07 04:52:23;;;;;;;13.52;9.52;;;;;;;;;;5281940;28;20042;-70
2023/04/07 04:54:54;;;;;;;14.45;9.63;;;;;;;;;;5281499;28;20027;-70
2023/04/07 04:57:26;;;;;;;12.20;8.57;;;;;;;;;;5281371;28;20517;-71
2023/04/07 04:59:57;;;;;;;14.82;9.82;;;;;;;;;;5281372;28;20068;-70
2023/04/07 05:02:28;;;;;;;13.55;8.77;;;;;;;;;;5281760;28;20032;-70
2023/04/07 05:04:59;;;;;;;14.25;9.30;;;;;;;;;;5280639;28;20106;-70
2023/04/07 05:07:30;;;;;;;12.73;8.38;;;;;;;;;;5281344;28;20021;-70
2023/04/07 05:10:02;;;;;;;14.90;9.75;;;;;;;;;;5281439;28;20385;-69
2023/04/07 05:12:33;;;;;;;13.48;8.68;;;;;;;;;;5280681;28;20108;-70
2023/04/07 05:15:05;;;;;;;13.32;9.60;;;;;;;;;;5281317;28;20078;-70
2023/04/07 05:17:36;;;;;;;15.43;10.00;;;;;;;;;;5281365;28;20119;-70
2023/04/07 05:20:08;;;;;;;16.70;9.05;;;;;;;;;;5280868;28;20037;-69
2023/04/07 05:22:40;;;;;;;15.65;9.07;;;;;;;;;;5280977;28;20487;-70
2023/04/07 05:25:11;;;;;;;15.43;10.15;;;;;;;;;;5280954;28;20020;-71
2023/04/07 05:27:42;;;;;;;14.40;8.88;;;;;;;;;;5281152;28;20028;-70
2023/04/07 05:30:13;;;;;;;14.10;8.98;;;;;;;;;;5281851;28;20082;-70
2023/04/07 05:32:45;;;;;;;15.98;8.32;;;;;;;;;;5280286;28;20016;-70
2023/04/07 05:35:16;;;;;;;14.80;8.88;;;;;;;;;;5281708;28;20425;-70
2023/04/07 05:37:47;;;;;;;13.20;8.57;;;;;;;;;;5280795;28;20012;-70
2023/04/07 05:40:19;;;;;;;13.77;8.70;;;;;;;;;;5280898;28;20097;-70
2023/04/07 05:42:50;;;;;;;14.13;8.73;;;;;;;;;;5281042;28;20044;-70
2023/04/07 05:45:21;;;;;;;14.65;9.32;;;;;;;;;;5281655;28;20040;-70
2023/04/07 05:47:52;;;;;;;17.55;9.93;;;;;;;;;;5282061;28;20023;-70
2023/04/07 05:50:23;;;;;;;18.80;10.10;;;;;;;;;;5285366;28;20040;-70
2023/04/07 05:52:55;;;;;;;18.80;10.73;;;;;;;;;;5284099;28;20051;-70
2023/04/07 05:55:26;;;;;;;14.52;9.88;;;;;;;;;;5285388;28;20016;-70
2023/04/07 05:57:57;;;;;;;15.32;10.02;;;;;;;;;;5284692;28;20103;-70
2023/04/07 06:00:28;;;;;;;12.95;9.18;;;;;;;;;;5284599;28;20013;-70
2023/04/07 06:03:00;;;;;;;16.25;10.77;;;;;;;;;;5284390;28;20034;-70
2023/04/07 06:05:31;;;;;;;17.75;10.35;;;;;;;;;;5285068;28;20047;-69
2023/04/07 06:08:03;;;;;;;13.63;10.15;;;;;;;;;;5284110;28;20032;-70
2023/04/07 06:10:34;;;;;;;15.23;10.80;;;;;;;;;;5284833;28;20021;-70
2023/04/07 06:13:05;;;;;;;16.42;10.93;;;;;;;;;;5284925;28;20078;-70
2023/04/07 06:15:36;;;;;;;18.15;10.82;;;;;;;;;;5284052;28;20024;-70
2023/04/07 06:18:07;;;;;;;14.98;11.00;;;;;;;;;;5284523;28;20039;-70
2023/04/07 06:20:39;;;;;;;14.32;10.54;;;;;;;;;;5284208;28;20530;-71
2023/04/07 06:23:10;;;;;;;15.55;11.23;;;;;;;;;;5283960;28;20438;-70
2023/04/07 06:25:41;;;;;;;16.55;10.85;;;;;;;;;;5284005;28;20055;-70
2023/04/07 06:28:12;;;;;;;16.60;11.18;;;;;;;;;;5284014;28;20398;-71
2023/04/07 06:30:43;;;;;;;18.92;11.50;;;;;;;;;;5284321;28;20025;-71
2023/04/07 06:33:15;;;;;;;14.88;11.55;;;;;;;;;;5284755;28;20028;-70
2023/04/07 06:35:46;;;;;;;14.50;10.80;;;;;;;;;;5283091;28;20020;-71
2023/04/07 06:38:17;;;;;;;16.48;10.70;;;;;;;;;;5284606;28;20045;-71
2023/04/07 06:40:49;;;;;;;16.77;11.02;;;;;;;;;;5284011;28;20028;-71
2023/04/07 06:43:20;;;;;;;16.55;11.35;;;;;;;;;;5283715;28;20019;-71
2023/04/07 06:45:51;;;;;;;16.35;10.95;;;;;;;;;;5284005;28;20024;-71
2023/04/07 06:48:22;;;;;;;13.10;10.22;;;;;;;;;;5284495;28;20035;-71
2023/04/07 06:50:54;;;;;;;14.92;10.90;;;;;;;;;;5282888;28;20058;-71
2023/04/07 06:53:25;;;;;;;16.67;11.68;;;;;;;;;;5284424;28;20031;-71
2023/04/07 06:56:06;;;;;;;15.75;11.23;;;;;;;;;;5283744;28;20036;-70
2023/04/07 06:58:38;;;;;;;15.18;11.10;;;;;;;;;;5283133;28;20021;-71
2023/04/07 07:01:09;;;;;;;11.80;9.60;;;;;;;;;;5284048;28;20020;-71
2023/04/07 07:03:40;;;;;;;15.57;10.07;;;;;;;;;;5282945;28;20044;-70
2023/04/07 07:06:11;;;;;;;12.38;8.50;;;;;;;;;;5284291;28;20016;-70
2023/04/07 07:08:42;;;;;;;11.43;8.52;;;;;;;;;;5283515;28;20020;-71
2023/04/07 07:11:14;;;;;;;9.90;7.50;;;;;;;;;;5283047;28;20270;-70
2023/04/07 07:13:45;;;;;;;11.35;7.90;;;;;;;;;;5283184;28;20029;-70
2023/04/07 07:16:16;;;;;;;9.77;7.38;;;;;;;;;;5284100;28;20138;-70
2023/04/07 07:18:48;;;;;;;9.95;7.20;;;;;;;;;;5282345;28;20032;-71
2023/04/07 07:21:19;;;;;;;9.68;6.85;;;;;;;;;;5283823;28;20460;-70
2023/04/07 07:23:50;;;;;;;8.75;7.28;;;;;;;;;;5282934;28;20040;-70
2023/04/07 07:26:21;;;;;;;8.57;6.93;;;;;;;;;;5282656;28;20371;-71
2023/04/07 07:28:53;;;;;;;10.80;7.35;;;;;;;;;;5282813;28;20135;-71
2023/04/07 07:31:24;;;;;;;8.68;6.07;;;;;;;;;;5282785;28;20016;-71
2023/04/07 07:33:55;;;;;;;10.05;6.13;;;;;;;;;;5282899;28;20051;-72
2023/04/07 07:36:26;;;;;;;6.46;5.38;;;;;;;;;;5283453;28;20089;-71
2023/04/07 07:38:58;;;;;;;7.40;4.53;;;;;;;;;;5281601;28;20059;-71
2023/04/07 07:41:29;;;;;;;6.38;4.32;;;;;;;;;;5283217;28;20021;-72
2023/04/07 07:44:00;;;;;;;3.97;3.40;;;;;;;;;;5282789;28;20013;-71
2023/04/07 07:46:32;;;;;;;7.82;4.38;;;;;;;;;;5282156;28;20360;-71
2023/04/07 07:49:04;;;;;;;6.70;3.58;;;;;;;;;;5282678;28;20067;-73
2023/04/07 07:51:35;;;;;;;7.28;3.10;;;;;;;;;;5282927;28;20026;-71
2023/04/07 07:54:08;;;;;;;4.28;2.63;;;;;;;;;;5281705;28;20028;-71
2023/04/07 07:56:39;;;;;;;5.15;2.70;;;;;;;;;;5282176;28;20019;-71
2023/04/07 07:59:11;;;;;;;4.25;2.42;;;;;;;;;;5282611;28;20459;-72
2023/04/07 08:01:42;;;;;;;4.72;2.05;;;;;;;;;;5281472;28;20519;-71
2023/04/07 08:04:13;;;;;;;6.07;1.58;;;;;;;;;;5282928;28;20032;-71
2023/04/07 08:06:44;;;;;;;5.50;1.17;;;;;;;;;;5273157;28;20416;-71
2023/04/07 08:09:16;;;;;;;4.38;1.10;;;;;;;;;;5261332;28;20104;-72
2023/04/07 08:11:47;;;;;;;5.05;1.23;;;;;;;;;;5260921;28;20024;-72
2023/04/07 08:14:19;;;;;;;4.47;1.20;;;;;;;;;;5260999;28;20025;-72
2023/04/07 08:16:50;;;;;;;5.38;1.40;;;;;;;;;;5260765;28;20032;-72
2023/04/07 08:19:21;;;;;;;2.10;0.77;;;;;;;;;;5275393;28;20483;-72
2023/04/07 08:21:52;;;;;;;3.63;0.88;;;;;;;;;;5280897;28;20501;-72
2023/04/07 08:24:24;;;;;;;5.63;0.90;;;;;;;;;;5277191;28;20043;-72
2023/04/07 08:26:55;;;;;;;2.25;0.80;;;;;;;;;;5280426;28;20024;-70
2023/04/07 08:29:26;;;;;;;2.03;0.80;;;;;;;;;;5281307;28;20056;-70
2023/04/07 08:31:57;;;;;;;4.25;0.80;;;;;;;;;;5281705;28;20028;-71
2023/04/07 08:34:28;;;;;;;6.10;0.95;;;;;;;;;;5282258;28;20035;-70
2023/04/07 08:37:00;;;;;;;3.53;0.77;;;;;;;;;;5271249;28;20051;-71
2023/04/07 08:39:32;;;;;;;6.38;0.77;;;;;;;;;;5260980;28;20463;-71
2023/04/07 08:42:03;;;;;;;5.22;0.75;;;;;;;;;;5260045;28;20531;-72
2023/04/07 08:44:35;;;;;;;1.67;0.40;;;;;;;;;;5261057;28;20021;-70
2023/04/07 08:47:07;;;;;;;5.28;0.50;;;;;;;;;;5260869;28;20018;-76
2023/04/07 08:49:40;;;;;;;2.50;0.43;;;;;;;;;;5259796;28;20021;-71
2023/04/07 08:52:12;;;;;;;3.22;0.50;;;;;;;;;;5260270;28;20493;-71
2023/04/07 08:54:43;;;;;;;4.43;0.40;;;;;;;;;;5259663;28;20021;-71
2023/04/07 08:57:15;;;;;;;4.13;0.40;;;;;;;;;;5259565;28;20047;-71
2023/04/07 08:59:47;;;;;;;2.78;0.45;;;;;;;;;;5258629;28;20131;-71
2023/04/07 09:02:19;;;;;;;4.10;0.60;;;;;;;;;;5260358;28;20427;-71
2023/04/07 09:04:50;;;;;;;2.72;0.40;;;;;;;;;;5260339;28;20036;-73
2023/04/07 09:07:22;;;;;;;2.38;0.30;;;;;;;;;;5260873;28;20092;-71
2023/04/07 09:09:54;;;;;;;3.28;0.68;;;;;;;;;;5259605;28;20372;-72
2023/04/07 09:12:26;;;;;;;2.90;0.40;;;;;;;;;;5260952;28;20028;-72
2023/04/07 09:14:57;;;;;;;5.88;0.77;;;;;;;;;;5260485;28;20025;-71
2023/04/07 09:17:29;;;;;;;2.10;0.50;;;;;;;;;;5260292;28;20036;-71
2023/04/07 09:20:00;;;;;;;3.60;0.40;;;;;;;;;;5260382;28;20071;-71
2023/04/07 09:22:35;;;;;;;2.45;0.40;;;;;;;;;;5273625;28;20411;-69
2023/04/07 09:25:13;;;;;;;3.83;0.43;;;;;;;;;;5285003;28;20024;-71
2023/04/07 09:27:58;;;;;;;3.22;0.47;;;;;;;;;;5284871;28;20054;-72
2023/04/07 09:30:30;;;;;;;3.45;0.50;;;;;;;;;;5285315;28;20063;-72
2023/04/07 09:33:01;;;;;;;2.55;0.40;;;;;;;;;;5284778;28;20016;-71
2023/04/07 09:35:49;;;;;;;3.28;0.40;;;;;;;;;;5285015;28;20024;-72
2023/04/07 09:38:21;;;;;;;2.70;0.30;;;;;;;;;;5284165;28;20425;-72
2023/04/07 09:41:03;;;;;;;3.38;0.32;;;;;;;;;;5283569;28;20017;-72
2023/04/07 09:43:45;;;;;;;6.22;0.73;;;;;;;;;;5282126;28;20036;-72
2023/04/07 09:46:17;;;;;;;4.72;0.57;;;;;;;;;;5281561;28;20340;-73
2023/04/07 09:48:59;;;;;;;4.70;0.50;;;;;;;;;;5282145;28;20031;-72
2023/04/07 09:51:32;;;;;;;4.70;0.50;;;;;;;;;;5282345;28;20131;-72
2023/04/07 09:54:03;;;;;;;4.93;0.57;;;;;;;;;;5282131;28;20386;-72
2023/04/07 09:56:35;;;;;;;6.20;0.60;;;;;;;;;;5283192;28;20024;-72
2023/04/07 09:59:08;;;;;;;6.32;0.40;;;;;;;;;;5283483;28;20298;-71
2023/04/07 10:01:40;;;;;;;4.45;0.60;;;;;;;;;;5284569;28;20092;-70
2023/04/07 10:04:11;;;;;;;9.55;0.90;;;;;;;;;;5285067;28;20099;-69
2023/04/07 10:06:42;;;;;;;9.10;0.90;;;;;;;;;;5282889;28;20024;-70
2023/04/07 10:09:14;;;;;;;5.03;0.60;;;;;;;;;;5281864;28;20024;-71
2023/04/07 10:11:45;;;;;;;7.07;0.90;;;;;;;;;;5279625;28;20462;-70
2023/04/07 10:14:17;;;;;;;7.40;0.80;;;;;;;;;;5285459;28;20355;-70
2023/04/07 10:16:48;;;;;;;5.38;0.70;;;;;;;;;;5284000;28;20092;-70
2023/04/07 10:19:20;;;;;;;5.65;0.82;;;;;;;;;;5284349;28;20075;-70
2023/04/07 10:21:52;;;;;;;5.40;0.60;;;;;;;;;;5282895;28;20410;-71
2023/04/07 10:24:42;;;;;;;4.82;0.52;;;;;;;;;;5284627;28;20028;-70
2023/04/07 10:27:16;;;;;;;4.97;0.55;;;;;;;;;;5280978;28;20032;-70
2023/04/07 10:29:48;;;;;;;7.28;0.50;;;;;;;;;;5283443;28;20051;-71
2023/04/07 10:32:20;;;;;;;6.07;0.70;;;;;;;;;;5284175;28;20108;-71
2023/04/07 10:34:54;;;;;;;4.32;0.50;;;;;;;;;;5282731;28;20495;-71
2023/04/07 10:37:26;;;;;;;3.75;0.70;;;;;;;;;;5284460;28;20032;-70
2023/04/07 10:40:16;;;;;;;4.78;0.85;;;;;;;;;;5282184;28;20390;-71
2023/04/07 10:42:47;;;;;;;3.15;0.75;;;;;;;;;;5281727;28;20569;-70
2023/04/07 10:45:38;;;;;;;5.35;0.50;;;;;;;;;;5284510;28;20093;-70
2023/04/07 10:48:11;;;;;;;4.88;0.50;;;;;;;;;;5284033;28;20093;-70
2023/04/07 10:50:43;;;;;;;5.88;0.50;;;;;;;;;;5283793;28;20020;-70
2023/04/07 10:53:15;;;;;;;4.13;0.60;;;;;;;;;;5284436;28;20027;-70
2023/04/07 10:55:52;;;;;;;4.80;0.80;;;;;;;;;;5282623;28;20012;-70
2023/04/07 10:58:24;;;;;;;5.28;0.70;;;;;;;;;;5284044;28;20028;-72
2023/04/07 11:01:10;;;;;;;6.25;1.02;;;;;;;;;;5283353;28;20059;-70
2023/04/07 11:03:51;;;;;;;5.53;0.50;;;;;;;;;;5282902;28;20107;-69
2023/04/07 11:06:22;;;;;;;3.92;0.40;;;;;;;;;;5284126;28;20482;-69
2023/04/07 11:08:53;;;;;;;5.47;0.50;;;;;;;;;;5283386;28;20020;-70
2023/04/07 11:11:37;;;;;;;3.20;0.45;;;;;;;;;;5282468;28;20509;-70
2023/04/07 11:14:08;;;;;;;2.38;0.30;;;;;;;;;;5283571;28;20016;-70
2023/04/07 11:16:41;;;;;;;3.88;0.50;;;;;;;;;;5282266;28;20486;-72
2023/04/07 11:19:12;;;;;;;5.47;0.50;;;;;;;;;;5283547;28;20417;-69
2023/04/07 11:21:43;;;;;;;3.63;0.40;;;;;;;;;;5282731;28;20115;-69
2023/04/07 11:24:33;;;;;;;6.20;0.55;;;;;;;;;;5282899;28;20090;-70
2023/04/07 11:27:05;;;;;;;3.17;0.30;;;;;;;;;;5282846;28;20036;-70
2023/04/07 11:29:37;;;;;;;3.95;0.40;;;;;;;;;;5283139;28;20016;-70
2023/04/07 11:32:08;;;;;;;3.08;0.50;;;;;;;;;;5282426;28;20016;-69
2023/04/07 11:34:39;;;;;;;4.85;0.40;;;;;;;;;;5282961;28;20383;-70
2023/04/07 11:37:24;;;;;;;4.00;0.57;;;;;;;;;;5283219;28;20024;-71
2023/04/07 11:39:56;;;;;;;3.50;0.40;;;;;;;;;;5282177;28;20067;-72
2023/04/07 11:42:31;;;;;;;3.70;0.40;;;;;;;;;;5282451;28;20041;-71
2023/04/07 11:45:02;;;;;;;5.95;0.63;;;;;;;;;;5278817;28;20017;-72
2023/04/07 11:47:37;;;;;;;2.65;0.50;;;;;;;;;;5280489;28;20456;-71
2023/04/07 11:50:09;;;;;;;5.20;0.50;;;;;;;;;;5280700;28;20021;-71
2023/04/07 11:52:44;;;;;;;3.83;0.40;;;;;;;;;;5279545;28;20085;-72
2023/04/07 11:55:16;;;;;;;4.82;0.60;;;;;;;;;;5280993;28;20017;-71
2023/04/07 11:57:47;;;;;;;4.75;0.65;;;;;;;;;;5280666;28;20035;-71
2023/04/07 12:00:19;;;;;;;5.05;0.63;;;;;;;;;;5281990;28;20036;-71
2023/04/07 12:02:50;;;;;;;7.10;1.02;;;;;;;;;;5281975;28;20395;-72
2023/04/07 12:05:21;;;;;;;5.82;0.70;;;;;;;;;;5282599;28;20075;-71
2023/04/07 12:07:53;;;;;;;8.90;0.65;;;;;;;;;;5281569;28;20029;-71
2023/04/07 12:10:27;;;;;;;3.13;0.50;;;;;;;;;;5282767;28;20052;-71
2023/04/07 12:12:58;;;;;;;3.92;0.43;;;;;;;;;;5281386;28;20025;-71
2023/04/07 12:15:30;;;;;;;5.25;0.80;;;;;;;;;;5282252;28;20074;-71
2023/04/07 12:18:02;;;;;;;4.72;0.50;;;;;;;;;;5282287;28;20024;-71
2023/04/07 12:20:33;;;;;;;4.22;0.57;;;;;;;;;;5281446;28;20103;-71
2023/04/07 12:23:04;;;;;;;4.35;0.40;;;;;;;;;;5282101;28;20123;-71
2023/04/07 12:25:35;;;;;;;3.03;0.40;;;;;;;;;;5282336;28;20020;-71
2023/04/07 12:28:06;;;;;;;4.40;0.50;;;;;;;;;;5281157;28;20017;-71
2023/04/07 12:30:38;;;;;;;4.57;0.77;;;;;;;;;;5281738;28;20020;-71
2023/04/07 12:33:09;;;;;;;4.25;0.50;;;;;;;;;;5282431;28;20012;-71
2023/04/07 12:35:40;;;;;;;4.78;0.85;;;;;;;;;;5280726;28;20035;-71
2023/04/07 12:38:12;;;;;;;5.07;0.80;;;;;;;;;;5282142;28;20463;-71
2023/04/07 12:40:43;;;;;;;3.00;0.40;;;;;;;;;;5281102;28;20028;-71
2023/04/07 12:43:14;;;;;;;4.97;0.75;;;;;;;;;;5282080;28;20400;-71
2023/04/07 12:45:46;;;;;;;8.00;0.60;;;;;;;;;;5281725;28;20021;-71
2023/04/07 12:48:17;;;;;;;4.20;0.40;;;;;;;;;;5281384;28;20115;-71
2023/04/07 12:50:48;;;;;;;5.03;0.47;;;;;;;;;;5281529;28;20030;-72
2023/04/07 12:53:20;;;;;;;3.38;0.40;;;;;;;;;;5282038;28;20016;-71
2023/04/07 12:55:51;;;;;;;3.55;0.65;;;;;;;;;;5280479;28;20418;-71
2023/04/07 12:58:23;;;;;;;5.35;0.88;;;;;;;;;;5282075;28;20028;-71
2023/04/07 13:00:55;;;;;;;5.32;0.70;;;;;;;;;;5281309;28;20013;-70
2023/04/07 13:03:26;;;;;;;4.88;0.82;;;;;;;;;;5280968;28;20027;-70
2023/04/07 13:06:00;;;;;;;4.60;0.57;;;;;;;;;;5281102;28;20021;-71
2023/04/07 13:08:31;;;;;;;5.07;0.77;;;;;;;;;;5281529;28;20019;-71
2023/04/07 13:11:02;;;;;;;5.38;0.57;;;;;;;;;;5280850;28;20024;-71
2023/04/07 13:13:33;;;;;;;4.32;0.55;;;;;;;;;;5281506;28;20390;-71
2023/04/07 13:16:04;;;;;;;5.30;0.68;;;;;;;;;;5280662;28;20485;-72
2023/04/07 13:18:36;;;;;;;3.35;0.50;;;;;;;;;;5281692;28;20052;-72
2023/04/07 13:21:07;;;;;;;3.70;0.63;;;;;;;;;;5281588;28;20288;-70
2023/04/07 13:23:38;;;;;;;5.82;1.05;;;;;;;;;;5280152;28;20148;-71
2023/04/07 13:26:10;;;;;;;5.28;0.52;;;;;;;;;;5281930;28;20048;-71
2023/04/07 13:28:44;;;;;;;8.80;0.75;;;;;;;;;;5281028;28;20070;-71
2023/04/07 13:31:16;;;;;;;7.68;0.63;;;;;;;;;;5281028;28;20522;-71
2023/04/07 13:33:48;;;;;;;5.47;0.50;;;;;;;;;;5280916;28;20012;-71
2023/04/07 13:36:20;;;;;;;5.00;0.70;;;;;;;;;;5281654;28;20363;-72
2023/04/07 13:38:51;;;;;;;6.10;0.50;;;;;;;;;;5280430;28;20028;-70
2023/04/07 13:41:22;;;;;;;3.57;0.60;;;;;;;;;;5281239;28;20352;-70
2023/04/07 13:43:53;;;;;;;7.03;0.50;;;;;;;;;;5281076;28;20370;-70
2023/04/07 13:46:25;;;;;;;6.63;0.80;;;;;;;;;;5280814;28;20025;-70
2023/04/07 13:48:57;;;;;;;6.05;1.15;;;;;;;;;;5280732;28;20086;-70
2023/04/07 13:51:28;;;;;;;5.68;0.80;;;;;;;;;;5280566;28;20008;-70
2023/04/07 13:53:59;;;;;;;8.25;0.50;;;;;;;;;;5280913;28;20029;-70
2023/04/07 13:56:31;;;;;;;4.90;0.50;;;;;;;;;;5281203;28;20044;-73
2023/04/07 13:59:02;;;;;;;5.00;0.50;;;;;;;;;;5280348;28;20036;-71
2023/04/07 14:01:34;;;;;;;5.57;0.50;;;;;;;;;;5281226;28;20031;-71
2023/04/07 14:04:05;;;;;;;5.63;0.90;;;;;;;;;;5281121;28;20024;-71
2023/04/07 14:06:37;;;;;;;3.92;0.40;;;;;;;;;;5280509;28;20099;-71
2023/04/07 14:09:08;;;;;;;6.00;0.77;;;;;;;;;;5283571;28;20013;-72
2023/04/07 14:11:39;;;;;;;4.65;0.50;;;;;;;;;;5284536;28;20025;-72
2023/04/07 14:14:10;;;;;;;3.83;0.47;;;;;;;;;;5283513;28;20017;-71
2023/04/07 14:16:42;;;;;;;4.13;0.38;;;;;;;;;;5283826;28;20021;-71
2023/04/07 14:19:13;;;;;;;3.88;0.45;;;;;;;;;;5283943;28;20523;-73
2023/04/07 14:21:44;;;;;;;4.75;0.50;;;;;;;;;;5283865;28;20119;-72
2023/04/07 14:24:16;;;;;;;4.32;0.40;;;;;;;;;;5284984;28;20534;-72
2023/04/07 14:26:48;;;;;;;3.88;0.52;;;;;;;;;;5283779;28;20098;-71
2023/04/07 14:29:19;;;;;;;6.35;0.40;;;;;;;;;;5284821;28;20024;-70
2023/04/07 14:31:50;;;;;;;4.57;0.52;;;;;;;;;;5283861;28;20020;-71
2023/04/07 14:34:21;;;;;;;3.72;0.63;;;;;;;;;;5283842;28;20024;-71
2023/04/07 14:36:53;;;;;;;6.53;0.55;;;;;;;;;;5284207;28;20478;-71
2023/04/07 14:39:24;;;;;;;6.95;0.60;;;;;;;;;;5284411;28;20028;-73
2023/04/07 14:41:56;;;;;;;5.15;0.60;;;;;;;;;;5283323;28;20107;-72
2023/04/07 14:44:27;;;;;;;5.07;0.60;;;;;;;;;;5284534;28;20028;-70
2023/04/07 14:46:59;;;;;;;7.05;0.75;;;;;;;;;;5283922;28;20505;-71
2023/04/07 14:49:30;;;;;;;6.03;0.90;;;;;;;;;;5283156;28;20032;-72
2023/04/07 14:52:02;;;;;;;5.15;0.60;;;;;;;;;;5283965;28;20012;-72
2023/04/07 14:54:34;;;;;;;10.13;2.38;;;;;;;;;;5283368;28;20875;-72
2023/04/07 14:57:05;;;;;;;17.63;4.25;;;;;;;;;;5284136;28;20099;-72
2023/04/07 14:59:36;;;;;;;12.50;5.28;;;;;;;;;;5283424;28;20025;-72
2023/04/07 15:02:08;;;;;;;11.77;2.58;;;;;;;;;;5282580;28;20009;-71
2023/04/07 15:04:39;;;;;;;5.95;0.90;;;;;;;;;;5283057;28;20577;-71